Time;durP1;ratioP1;P1;durP2;ratioP2;P2;SDS_P1;SDS_P2;PMS_P1;PMS_P2;Temp;Humidity;BMP_temperature;BMP_pressure;BME280_temperature;BME280_humidity;BME280_pressure;Samples;Min_cycle;Max_cycle;Signal;HPM_P1;HPM_P2
2021/08/26 00:01:10;;;;;;;26.90;11.80;;;;;;;10.47;60.05;98509.21;112427;1195;97627;-76
2021/08/26 00:06:25;;;;;;;29.60;11.80;;;;;;;10.45;60.11;98504.00;112445;1203;97566;-75
2021/08/26 00:08:56;;;;;;;28.90;12.10;;;;;;;10.45;60.18;98503.66;112234;1203;107462;-75
2021/08/26 00:11:25;;;;;;;28.60;11.50;;;;;;;10.45;60.23;98498.01;112233;1198;97612;-75
2021/08/26 00:13:53;;;;;;;28.50;10.90;;;;;;;10.45;60.30;98498.67;112239;1204;97642;-75
2021/08/26 00:16:26;;;;;;;26.50;11.50;;;;;;;10.45;60.46;98499.96;112283;1204;110804;-72
2021/08/26 00:18:55;;;;;;;27.00;10.90;;;;;;;10.43;60.30;98497.77;112237;1204;97728;-75
2021/08/26 00:21:24;;;;;;;26.40;11.80;;;;;;;10.42;60.40;98493.09;112385;1203;107441;-74
2021/08/26 00:23:52;;;;;;;28.30;12.30;;;;;;;10.41;60.43;98489.05;112436;1195;98460;-74
2021/08/26 00:26:20;;;;;;;26.70;11.80;;;;;;;10.40;60.60;98484.91;112465;1196;98019;-75
2021/08/26 00:28:49;;;;;;;31.50;12.10;;;;;;;10.39;60.58;98488.31;112235;1204;111483;-75
2021/08/26 00:31:16;;;;;;;25.80;11.30;;;;;;;10.39;60.73;98487.46;112425;1203;97575;-75
2021/08/26 00:33:45;;;;;;;30.00;12.00;;;;;;;10.38;60.76;98485.94;112386;1204;107369;-75
2021/08/26 00:36:12;;;;;;;34.10;12.20;;;;;;;10.37;60.80;98486.89;112405;1199;98294;-75
2021/08/26 00:38:40;;;;;;;28.70;12.30;;;;;;;10.37;60.96;98478.61;112374;1200;97643;-75
2021/08/26 00:41:08;;;;;;;27.70;12.30;;;;;;;10.37;60.97;98479.44;112404;1196;111130;-75
2021/08/26 00:43:36;;;;;;;29.80;12.30;;;;;;;10.38;61.07;98473.02;112333;1203;97560;-73
2021/08/26 00:46:04;;;;;;;28.40;12.20;;;;;;;10.39;61.10;98481.48;112133;1204;107901;-73
2021/08/26 00:48:32;;;;;;;26.80;11.70;;;;;;;10.39;61.15;98480.92;112432;1196;95364;-71
2021/08/26 00:51:00;;;;;;;32.50;13.10;;;;;;;10.39;61.19;98478.98;112298;1203;95400;-73
2021/08/26 00:53:28;;;;;;;31.60;12.50;;;;;;;10.37;61.16;98475.23;112163;1200;111030;-75
2021/08/26 00:55:56;;;;;;;28.80;11.90;;;;;;;10.34;61.23;98474.95;112210;1204;97415;-73
2021/08/26 00:58:27;;;;;;;26.30;11.00;;;;;;;10.32;61.18;98465.73;112363;1204;107189;-75
2021/08/26 01:01:02;;;;;;;26.60;12.00;;;;;;;10.29;61.37;98465.80;112355;1203;95051;-74
2021/08/26 01:03:43;;;;;;;25.30;11.50;;;;;;;10.25;61.28;98462.15;112390;1203;97524;-74
2021/08/26 01:06:16;;;;;;;26.60;12.60;;;;;;;10.22;61.31;98465.23;112422;1203;111057;-72
2021/08/26 01:09:04;;;;;;;28.40;11.70;;;;;;;10.20;61.36;98462.77;112440;1203;97654;-75
2021/08/26 01:11:35;;;;;;;30.30;11.50;;;;;;;10.17;61.51;98460.85;112259;1196;107515;-73
2021/08/26 01:14:06;;;;;;;27.20;11.50;;;;;;;10.15;61.46;98457.00;112248;1196;96010;-74
2021/08/26 01:16:41;;;;;;;26.00;11.20;;;;;;;10.12;61.48;98458.45;112434;1203;95030;-72
2021/08/26 01:19:09;;;;;;;25.70;11.90;;;;;;;10.10;61.59;98457.87;112435;1203;111139;-73
2021/08/26 01:21:37;;;;;;;26.20;11.60;;;;;;;10.07;61.55;98451.34;112488;1200;96446;-74
2021/08/26 01:24:09;;;;;;;25.50;10.80;;;;;;;10.06;61.55;98452.36;112428;1204;107433;-74
2021/08/26 01:26:42;;;;;;;26.70;11.90;;;;;;;10.03;61.68;98449.02;112478;1204;95146;-76
2021/08/26 01:29:12;;;;;;;26.30;11.20;;;;;;;10.00;61.74;98447.70;112445;1203;97554;-74
2021/08/26 01:31:42;;;;;;;24.80;11.20;;;;;;;9.97;61.63;98444.91;112392;1204;111053;-76
2021/08/26 01:34:10;;;;;;;25.90;10.50;;;;;;;9.92;61.59;98446.71;112419;1198;97584;-77
2021/08/26 01:36:38;;;;;;;25.70;11.20;;;;;;;9.84;61.45;98445.23;112398;1203;107492;-74
2021/08/26 01:39:10;;;;;;;27.80;11.80;;;;;;;9.76;61.53;98443.59;112425;1197;95137;-74
2021/08/26 01:41:55;;;;;;;24.70;10.40;;;;;;;9.69;61.82;98443.25;112440;1200;97637;-74
2021/08/26 01:44:27;;;;;;;26.00;11.70;;;;;;;9.63;61.86;98439.45;112470;1204;111109;-76
2021/08/26 01:47:11;;;;;;;24.60;10.40;;;;;;;9.60;61.85;98433.73;112392;1195;97567;-74
2021/08/26 01:49:39;;;;;;;;;;;;;;;9.56;62.02;98429.77;112429;1203;107415;-74
2021/08/26 01:52:07;;;;;;;26.80;10.50;;;;;;;9.53;62.08;98425.20;112412;1198;97655;-74
2021/08/26 01:54:35;;;;;;;27.90;10.90;;;;;;;9.52;62.12;98424.38;112441;1196;95128;-73
2021/08/26 01:57:04;;;;;;;27.70;10.90;;;;;;;9.51;62.07;98418.06;112248;1204;110859;-73
2021/08/26 01:59:33;;;;;;;29.60;12.00;;;;;;;9.50;61.98;98413.77;112197;1204;95775;-74
2021/08/26 02:02:02;;;;;;;26.60;11.00;;;;;;;9.46;62.11;98410.73;112268;1203;107363;-73
2021/08/26 02:04:31;;;;;;;28.50;10.60;;;;;;;9.43;62.07;98405.44;112219;1204;97546;-73
2021/08/26 02:06:58;;;;;;;27.00;10.50;;;;;;;9.42;62.17;98399.83;112271;1197;97670;-74
2021/08/26 02:09:29;;;;;;;25.10;10.60;;;;;;;9.42;62.34;98395.61;112293;1204;110705;-74
2021/08/26 02:11:58;;;;;;;30.30;11.40;;;;;;;9.40;62.38;98388.32;112267;1204;97661;-75
2021/08/26 02:14:26;;;;;;;26.30;10.50;;;;;;;9.39;62.42;98386.41;112746;1196;107878;-74
2021/08/26 02:16:55;;;;;;;27.10;11.10;;;;;;;9.37;62.26;98383.94;112173;1203;98357;-73
2021/08/26 02:19:23;;;;;;;25.80;11.10;;;;;;;9.32;62.34;98381.01;112321;1204;97546;-73
2021/08/26 02:21:50;;;;;;;24.80;11.10;;;;;;;9.26;62.42;98381.66;112242;1197;111904;-73
2021/08/26 02:24:18;;;;;;;25.70;12.00;;;;;;;9.24;62.53;98378.58;112323;1204;97732;-72
2021/08/26 02:26:47;;;;;;;24.70;10.90;;;;;;;9.21;62.56;98373.48;112245;1204;107237;-73
2021/08/26 02:29:14;;;;;;;24.30;10.60;;;;;;;9.16;62.45;98369.52;112280;1204;97732;-74
2021/08/26 02:31:42;;;;;;;32.40;11.00;;;;;;;9.13;62.69;98368.88;112239;1198;95039;-74
2021/08/26 02:34:10;;;;;;;25.50;11.00;;;;;;;9.13;62.94;98363.73;112248;1204;110926;-74
2021/08/26 02:36:38;;;;;;;27.20;10.80;;;;;;;9.16;62.88;98359.27;112300;1204;97789;-73
2021/08/26 02:39:07;;;;;;;23.50;9.90;;;;;;;9.19;63.06;98357.39;112261;1204;107413;-73
2021/08/26 02:41:37;;;;;;;26.20;10.40;;;;;;;9.21;63.05;98355.27;112258;1195;98309;-73
2021/08/26 02:44:05;;;;;;;29.50;10.60;;;;;;;9.22;63.10;98349.55;112280;1196;98751;-73
2021/08/26 02:46:33;;;;;;;24.70;10.60;;;;;;;9.24;63.14;98351.34;112301;1204;111544;-72
2021/08/26 02:49:03;;;;;;;26.50;11.10;;;;;;;9.27;63.17;98347.44;112351;1203;97592;-72
2021/08/26 02:51:31;;;;;;;26.70;9.90;;;;;;;9.30;63.23;98348.96;112328;1203;107463;-71
2021/08/26 02:53:58;;;;;;;24.90;10.30;;;;;;;9.32;63.15;98345.64;112371;1200;96150;-73
2021/08/26 02:56:26;;;;;;;25.60;10.50;;;;;;;9.33;63.34;98344.25;112324;1195;97690;-74
2021/08/26 02:58:55;;;;;;;22.30;9.70;;;;;;;9.35;63.26;98336.68;112398;1203;111085;-72
2021/08/26 03:01:22;;;;;;;25.20;9.70;;;;;;;9.36;63.32;98331.80;112448;1202;97646;-73
2021/08/26 03:03:52;;;;;;;25.90;10.10;;;;;;;9.38;63.40;98326.50;112337;1204;107065;-74
2021/08/26 03:06:20;;;;;;;24.80;9.90;;;;;;;9.40;63.37;98325.84;112411;1204;97607;-74
2021/08/26 03:08:47;;;;;;;25.90;10.70;;;;;;;9.41;63.44;98325.95;112441;1200;97565;-75
2021/08/26 03:11:15;;;;;;;24.30;9.80;;;;;;;9.42;63.48;98323.75;112443;1195;110279;-75
2021/08/26 03:13:43;;;;;;;25.80;9.80;;;;;;;9.44;63.47;98320.27;112381;1205;97710;-73
2021/08/26 03:16:11;;;;;;;27.40;10.20;;;;;;;9.45;63.48;98320.01;112403;1203;107055;-75
2021/08/26 03:18:39;;;;;;;24.90;10.60;;;;;;;9.45;63.49;98313.08;112289;1203;96973;-75
2021/08/26 03:21:07;;;;;;;24.30;10.10;;;;;;;9.45;63.60;98310.41;112415;1203;94950;-74
2021/08/26 03:23:35;;;;;;;24.10;10.10;;;;;;;9.46;63.59;98311.25;112429;1203;111028;-74
2021/08/26 03:26:03;;;;;;;25.10;10.50;;;;;;;9.46;63.55;98309.47;112430;1203;95036;-73
2021/08/26 03:28:30;;;;;;;23.10;9.90;;;;;;;9.46;63.59;98303.98;112406;1195;107361;-74
2021/08/26 03:30:58;;;;;;;21.70;8.50;;;;;;;9.46;63.59;98296.73;112410;1203;97598;-73
2021/08/26 03:33:26;;;;;;;24.40;9.50;;;;;;;9.47;63.62;98296.50;112374;1200;97695;-74
2021/08/26 03:35:54;;;;;;;24.40;9.50;;;;;;;9.46;63.63;98299.36;112369;1204;110588;-75
2021/08/26 03:38:22;;;;;;;26.20;10.20;;;;;;;9.44;63.62;98294.02;112353;1205;97672;-74
2021/08/26 03:40:52;;;;;;;24.60;9.90;;;;;;;9.44;63.70;98295.83;112236;1204;107243;-77
2021/08/26 03:43:20;;;;;;;24.50;9.10;;;;;;;9.40;63.59;98292.60;112396;1195;97679;-75
2021/08/26 03:45:49;;;;;;;23.90;10.10;;;;;;;9.35;63.59;98295.95;112444;1195;97584;-76
2021/08/26 03:48:17;;;;;;;22.60;9.10;;;;;;;9.33;63.73;98298.13;112249;1203;111135;-75
2021/08/26 03:50:45;;;;;;;22.50;9.10;;;;;;;9.30;63.91;98296.36;112242;1204;97672;-75
2021/08/26 03:53:13;;;;;;;22.70;9.30;;;;;;;9.30;63.85;98297.80;112272;1203;107383;-74
2021/08/26 03:55:41;;;;;;;25.70;9.00;;;;;;;9.29;63.83;98291.73;112241;1196;97572;-76
2021/08/26 03:58:08;;;;;;;25.10;9.40;;;;;;;9.29;63.92;98286.41;112279;1200;98078;-78
2021/08/26 04:00:36;;;;;;;24.00;9.90;;;;;;;9.28;63.78;98277.26;112322;1205;111025;-75
2021/08/26 04:03:05;;;;;;;23.30;9.20;;;;;;;9.26;63.79;98276.17;112318;1204;97680;-81
2021/08/26 04:05:34;;;;;;;22.70;9.20;;;;;;;9.24;63.80;98278.80;112315;1204;107392;-79
2021/08/26 04:08:02;;;;;;;24.40;8.90;;;;;;;9.23;64.04;98277.65;112296;1198;97665;-77
2021/08/26 04:10:29;;;;;;;24.20;9.50;;;;;;;9.23;63.84;98275.02;112349;1199;97673;-74
2021/08/26 04:12:57;;;;;;;23.20;9.00;;;;;;;9.23;63.91;98266.70;112312;1203;111128;-75
2021/08/26 04:15:25;;;;;;;23.70;8.80;;;;;;;9.21;63.96;98267.70;112340;1204;97605;-74
2021/08/26 04:17:53;;;;;;;22.70;8.70;;;;;;;9.21;63.98;98271.59;112214;1196;107426;-71
2021/08/26 04:20:21;;;;;;;23.70;8.70;;;;;;;9.22;64.16;98275.59;112270;1198;97675;-77
2021/08/26 04:22:49;;;;;;;25.00;9.50;;;;;;;9.24;64.19;98275.12;112355;1204;95017;-77
2021/08/26 04:25:16;;;;;;;25.40;9.10;;;;;;;9.27;64.34;98277.74;112337;1204;111102;-78
2021/08/26 04:27:47;;;;;;;22.30;9.60;;;;;;;9.28;64.40;98276.60;112353;1204;97553;-77
2021/08/26 04:30:16;;;;;;;24.30;9.90;;;;;;;9.31;64.47;98270.86;112344;1204;107463;-76
2021/08/26 04:32:44;;;;;;;22.90;9.60;;;;;;;9.36;64.55;98272.42;112316;1195;97700;-75
2021/08/26 04:35:12;;;;;;;24.20;10.10;;;;;;;9.40;64.59;98269.05;112359;1198;97679;-75
2021/08/26 04:37:39;;;;;;;22.70;9.20;;;;;;;9.45;64.55;98267.45;112346;1204;110824;-77
2021/08/26 04:40:09;;;;;;;27.00;9.50;;;;;;;9.49;64.66;98268.84;112365;1205;97706;-75
2021/08/26 04:42:37;;;;;;;23.00;9.60;;;;;;;9.56;64.62;98267.84;112278;1203;106455;-80
2021/08/26 04:45:05;;;;;;;22.70;9.30;;;;;;;9.61;64.64;98265.78;112224;1203;97801;-79
2021/08/26 04:47:33;;;;;;;23.00;8.80;;;;;;;9.67;64.68;98262.66;112373;1196;97565;-78
2021/08/26 04:50:02;;;;;;;21.20;8.20;;;;;;;9.73;64.74;98262.21;112346;1203;111093;-76
2021/08/26 04:52:30;;;;;;;22.50;8.70;;;;;;;9.77;64.79;98258.63;112363;1205;97684;-81
2021/08/26 04:54:58;;;;;;;23.60;9.20;;;;;;;9.82;64.69;98259.61;112373;1204;107434;-79
2021/08/26 04:57:26;;;;;;;21.90;8.10;;;;;;;9.89;64.74;98257.34;112340;1200;97791;-79
2021/08/26 04:59:54;;;;;;;21.70;8.70;;;;;;;9.94;64.85;98258.17;112368;1205;97514;-79
2021/08/26 05:02:22;;;;;;;20.80;7.90;;;;;;;9.99;64.73;98256.27;112344;1204;111127;-79
2021/08/26 05:04:50;;;;;;;21.00;8.20;;;;;;;10.04;64.73;98256.45;112360;1205;98036;-79
2021/08/26 05:07:18;;;;;;;22.00;8.30;;;;;;;10.09;64.66;98251.40;112258;1205;107434;-82
2021/08/26 05:09:45;;;;;;;21.90;8.00;;;;;;;10.15;64.79;98254.84;112293;1199;95140;-79
2021/08/26 05:12:15;;;;;;;20.50;8.40;;;;;;;10.20;64.80;98256.68;112176;1196;97659;-78
2021/08/26 05:14:42;;;;;;;21.20;7.80;;;;;;;10.26;64.87;98255.83;112483;1196;111077;-78
2021/08/26 05:17:10;;;;;;;22.10;8.30;;;;;;;10.32;64.78;98253.23;112342;1204;95029;-79
2021/08/26 05:19:38;;;;;;;21.10;8.70;;;;;;;10.38;64.79;98251.33;112355;1204;107474;-79
2021/08/26 05:22:06;;;;;;;21.70;7.80;;;;;;;10.42;64.85;98250.61;112332;1195;95032;-80
2021/08/26 05:24:34;;;;;;;22.60;9.00;;;;;;;10.48;64.85;98247.70;112379;1195;97672;-79
2021/08/26 05:27:02;;;;;;;20.40;7.20;;;;;;;10.53;64.91;98248.96;112342;1204;111114;-77
2021/08/26 05:29:30;;;;;;;21.40;8.10;;;;;;;10.59;64.82;98246.02;112349;1205;95023;-79
2021/08/26 05:31:57;;;;;;;21.30;8.00;;;;;;;10.64;64.94;98240.06;112326;1204;107358;-78
2021/08/26 05:34:26;;;;;;;20.50;8.50;;;;;;;10.69;65.03;98229.51;112306;1198;95070;-79
2021/08/26 05:36:53;;;;;;;22.40;8.80;;;;;;;10.76;65.00;98230.36;112382;1204;98291;-78
2021/08/26 05:39:21;;;;;;;21.10;7.80;;;;;;;10.83;65.06;98229.20;112310;1199;111150;-79
2021/08/26 05:41:49;;;;;;;19.10;6.90;;;;;;;10.90;65.03;98227.96;112404;1205;97675;-78
2021/08/26 05:44:18;;;;;;;21.80;7.80;;;;;;;10.95;65.00;98230.45;112391;1204;107460;-78
2021/08/26 05:46:46;;;;;;;20.70;8.00;;;;;;;11.02;65.03;98225.42;112309;1206;97620;-77
2021/08/26 05:49:14;;;;;;;23.00;9.20;;;;;;;11.09;65.05;98222.37;112394;1200;97635;-77
2021/08/26 05:51:42;;;;;;;19.70;7.60;;;;;;;11.16;65.10;98223.69;112280;1205;111126;-79
2021/08/26 05:54:10;;;;;;;22.00;7.40;;;;;;;11.24;65.05;98222.13;112419;1204;97657;-79
2021/08/26 05:56:38;;;;;;;25.80;8.40;;;;;;;11.31;65.09;98223.43;112357;1200;107446;-79
2021/08/26 05:59:07;;;;;;;22.20;8.40;;;;;;;11.39;65.14;98225.02;112320;1200;98131;-78
2021/08/26 06:01:36;;;;;;;21.90;7.90;;;;;;;11.46;65.17;98222.23;112384;1205;97676;-79
2021/08/26 06:04:04;;;;;;;22.10;8.70;;;;;;;11.55;65.15;98219.90;112366;1204;111077;-78
2021/08/26 06:06:32;;;;;;;17.30;7.10;;;;;;;11.64;65.22;98223.02;112314;1205;94999;-79
2021/08/26 06:09:00;;;;;;;21.20;7.60;;;;;;;11.73;65.27;98221.67;112353;1204;107415;-78
2021/08/26 06:11:27;;;;;;;22.50;8.40;;;;;;;11.83;65.36;98223.95;112297;1203;97658;-80
2021/08/26 06:13:55;;;;;;;22.20;7.70;;;;;;;11.92;65.29;98219.88;112355;1203;97651;-80
2021/08/26 06:16:23;;;;;;;20.00;8.00;;;;;;;12.03;65.35;98221.08;112362;1200;111160;-79
2021/08/26 06:18:52;;;;;;;22.60;8.90;;;;;;;12.13;65.29;98222.84;112291;1204;97682;-79
2021/08/26 06:21:20;;;;;;;21.30;8.20;;;;;;;12.24;65.25;98224.08;112329;1204;107488;-79
2021/08/26 06:23:48;;;;;;;23.60;8.50;;;;;;;12.36;65.32;98221.56;112387;1205;97736;-79
2021/08/26 06:26:16;;;;;;;21.90;7.90;;;;;;;12.51;65.40;98220.18;112382;1204;95052;-76
2021/08/26 06:28:44;;;;;;;19.70;8.00;;;;;;;12.69;65.40;98220.09;112325;1204;111094;-77
2021/08/26 06:31:13;;;;;;;20.50;8.20;;;;;;;12.89;65.27;98214.33;112320;1204;97603;-78
2021/08/26 06:33:44;;;;;;;20.90;8.30;;;;;;;13.09;65.35;98209.38;112354;1204;108174;-78
2021/08/26 06:36:12;;;;;;;20.90;7.40;;;;;;;13.30;65.33;98212.11;112305;1203;97615;-79
2021/08/26 06:38:40;;;;;;;22.10;8.30;;;;;;;13.50;65.25;98210.98;112398;1205;97636;-79
2021/08/26 06:41:09;;;;;;;22.70;8.80;;;;;;;13.66;65.26;98209.20;112387;1205;111141;-78
2021/08/26 06:43:37;;;;;;;23.00;9.00;;;;;;;13.81;65.32;98202.04;112388;1204;97514;-78
2021/08/26 06:46:05;;;;;;;19.70;7.80;;;;;;;13.96;65.19;98204.27;112373;1205;107013;-79
2021/08/26 06:48:33;;;;;;;20.90;8.20;;;;;;;14.08;65.19;98204.67;112356;1204;97592;-79
2021/08/26 06:51:00;;;;;;;19.90;7.70;;;;;;;14.16;65.08;98204.42;112382;1195;97658;-77
2021/08/26 06:53:28;;;;;;;18.70;7.10;;;;;;;14.21;65.14;98203.91;112315;1204;110783;-79
2021/08/26 06:55:56;;;;;;;21.60;7.80;;;;;;;14.26;65.06;98203.60;112357;1204;97669;-79
2021/08/26 06:58:24;;;;;;;21.60;8.60;;;;;;;14.33;65.00;98204.34;112333;1205;107241;-80
2021/08/26 07:00:53;;;;;;;22.40;8.30;;;;;;;14.41;65.13;98201.13;112351;1204;97671;-78
2021/08/26 07:03:21;;;;;;;23.30;8.50;;;;;;;14.54;65.09;98205.92;112378;1204;97569;-79
2021/08/26 07:05:50;;;;;;;22.00;8.50;;;;;;;14.64;65.01;98207.57;112353;1204;111050;-79
2021/08/26 07:08:17;;;;;;;20.70;8.10;;;;;;;14.74;65.03;98202.71;112356;1204;97687;-78
2021/08/26 07:10:45;;;;;;;20.20;7.60;;;;;;;14.84;65.00;98202.36;112339;1204;107164;-79
2021/08/26 07:13:14;;;;;;;22.20;7.70;;;;;;;14.96;65.02;98206.96;112382;1198;97652;-79
2021/08/26 07:15:42;;;;;;;19.50;7.60;;;;;;;15.11;64.99;98205.46;112402;1196;97570;-80
2021/08/26 07:18:11;;;;;;;17.20;7.00;;;;;;;15.27;65.00;98204.48;112384;1204;111157;-79
2021/08/26 07:20:39;;;;;;;19.80;7.40;;;;;;;15.46;64.90;98205.30;112391;1204;97644;-79
2021/08/26 07:23:07;;;;;;;19.20;7.30;;;;;;;15.68;64.89;98202.45;112383;1205;107408;-78
2021/08/26 07:25:35;;;;;;;22.60;8.40;;;;;;;15.81;64.78;98198.78;112348;1204;98097;-80
2021/08/26 07:28:06;;;;;;;18.90;7.60;;;;;;;15.85;64.80;98196.73;112313;1196;97770;-78
2021/08/26 07:30:35;;;;;;;19.90;7.30;;;;;;;15.86;64.86;98197.85;112335;1205;111225;-78
2021/08/26 07:33:03;;;;;;;22.20;7.50;;;;;;;15.88;64.89;98199.23;112309;1205;95685;-80
2021/08/26 07:35:31;;;;;;;18.70;7.00;;;;;;;15.91;64.68;98198.02;112300;1205;107075;-78
2021/08/26 07:38:00;;;;;;;19.80;8.40;;;;;;;15.93;64.72;98195.33;112371;1204;97649;-78
2021/08/26 07:40:28;;;;;;;19.30;7.40;;;;;;;15.95;64.76;98198.92;112643;1195;97664;-78
2021/08/26 07:42:56;;;;;;;19.80;7.70;;;;;;;15.97;64.76;98199.02;112407;1205;111159;-78
2021/08/26 07:45:24;;;;;;;19.00;7.90;;;;;;;16.00;64.61;98200.63;112443;1205;97840;-79
2021/08/26 07:47:53;;;;;;;18.00;7.00;;;;;;;16.05;64.62;98204.02;112298;1202;107193;-80
2021/08/26 07:50:21;;;;;;;19.20;6.90;;;;;;;16.12;64.62;98205.98;112368;1204;97558;-79
2021/08/26 07:52:49;;;;;;;19.20;7.40;;;;;;;16.22;64.53;98204.33;112410;1195;97602;-79
2021/08/26 07:55:18;;;;;;;19.20;7.60;;;;;;;16.35;64.35;98210.25;112382;1203;111083;-79
2021/08/26 07:57:46;;;;;;;17.30;7.10;;;;;;;16.50;64.27;98213.96;112392;1204;97748;-80
2021/08/26 08:00:15;;;;;;;19.30;8.00;;;;;;;16.86;63.92;98214.16;112430;1205;108554;-80
2021/08/26 08:02:43;;;;;;;20.90;7.70;;;;;;;17.09;64.17;98212.63;112423;1196;97546;-80
2021/08/26 08:05:12;;;;;;;22.90;7.50;;;;;;;17.27;64.10;98210.57;112432;1195;97610;-80
2021/08/26 08:07:44;;;;;;;20.20;7.90;;;;;;;17.38;64.04;98207.75;112351;1204;111157;-82
2021/08/26 08:10:15;;;;;;;20.20;8.10;;;;;;;17.45;63.77;98209.16;112391;1203;96434;-81
2021/08/26 08:12:43;;;;;;;18.90;7.70;;;;;;;17.50;63.97;98209.56;112364;1203;107438;-80
2021/08/26 08:15:12;;;;;;;18.20;7.30;;;;;;;17.61;63.67;98209.73;112326;1196;97712;-80
2021/08/26 08:17:40;;;;;;;19.80;8.60;;;;;;;17.69;63.93;98209.04;112426;1195;95390;-81
2021/08/26 08:20:10;;;;;;;20.60;8.20;;;;;;;17.63;63.91;98211.23;112374;1203;111099;-79
2021/08/26 08:22:38;;;;;;;21.80;8.40;;;;;;;17.55;63.76;98211.18;112315;1204;97605;-80
2021/08/26 08:25:08;;;;;;;18.30;7.30;;;;;;;17.49;63.82;98208.64;112310;1203;107414;-80
2021/08/26 08:27:36;;;;;;;21.00;7.90;;;;;;;17.46;63.74;98208.15;112348;1195;97583;-79
2021/08/26 08:30:05;;;;;;;18.80;7.60;;;;;;;17.42;63.71;98206.59;112350;1200;95138;-79
2021/08/26 08:32:34;;;;;;;18.30;6.90;;;;;;;17.37;63.63;98202.00;112298;1203;111162;-79
2021/08/26 08:35:03;;;;;;;20.30;7.50;;;;;;;17.31;63.50;98208.06;112336;1204;97555;-80
2021/08/26 08:37:31;;;;;;;21.60;8.60;;;;;;;17.21;63.52;98208.27;112346;1202;107410;-80
2021/08/26 08:39:59;;;;;;;19.10;7.70;;;;;;;17.10;63.44;98208.83;112313;1204;97568;-79
2021/08/26 08:42:31;;;;;;;19.70;7.90;;;;;;;17.00;63.50;98209.24;112333;1196;98755;-79
2021/08/26 08:45:01;;;;;;;20.50;8.30;;;;;;;16.90;63.37;98207.57;112287;1204;111208;-80
2021/08/26 08:47:33;;;;;;;20.10;8.50;;;;;;;16.83;63.47;98206.93;112312;1205;97757;-79
2021/08/26 08:50:03;;;;;;;20.80;8.80;;;;;;;16.78;63.52;98206.61;112357;1204;107559;-79
2021/08/26 08:52:40;;;;;;;20.20;8.40;;;;;;;16.74;63.41;98207.59;112267;1200;97722;-81
2021/08/26 08:55:12;;;;;;;19.70;7.70;;;;;;;16.72;63.33;98206.52;112287;1204;97614;-80
2021/08/26 08:57:43;;;;;;;20.80;8.10;;;;;;;16.75;63.29;98210.50;112299;1204;111173;-79
2021/08/26 09:00:18;;;;;;;19.60;8.00;;;;;;;16.79;63.33;98212.04;112356;1204;97580;-78
2021/08/26 09:02:46;;;;;;;20.20;8.30;;;;;;;16.88;63.30;98210.70;112361;1204;107472;-79
2021/08/26 09:05:17;;;;;;;20.50;8.80;;;;;;;16.95;63.25;98213.80;112302;1196;97640;-79
2021/08/26 09:07:46;;;;;;;21.30;7.80;;;;;;;17.05;63.13;98215.48;112280;1205;97581;-79
2021/08/26 09:10:18;;;;;;;19.30;8.40;;;;;;;17.13;63.13;98217.21;112293;1204;111197;-79
2021/08/26 09:12:51;;;;;;;22.00;8.60;;;;;;;17.22;63.09;98214.63;112316;1204;97605;-80
2021/08/26 09:15:29;;;;;;;20.90;8.80;;;;;;;17.29;63.00;98218.25;112336;1204;107564;-79
2021/08/26 09:18:11;;;;;;;19.80;7.50;;;;;;;17.39;62.90;98212.79;112256;1203;97672;-79
2021/08/26 09:21:01;;;;;;;19.90;7.70;;;;;;;17.50;62.79;98215.39;112317;1205;94985;-77
2021/08/26 09:23:34;;;;;;;19.70;7.60;;;;;;;17.63;63.00;98219.07;112172;1205;110057;-82
2021/08/26 09:26:17;;;;;;;19.50;8.60;;;;;;;17.73;62.76;98220.60;112310;1204;94977;-79
2021/08/26 09:28:49;;;;;;;18.40;7.50;;;;;;;17.80;62.78;98216.18;112271;1204;107414;-80
2021/08/26 09:31:25;;;;;;;19.30;7.90;;;;;;;17.82;62.81;98217.58;112365;1204;97679;-79
2021/08/26 09:34:01;;;;;;;18.50;7.00;;;;;;;17.82;62.59;98220.45;112379;1203;97693;-83
2021/08/26 09:36:52;;;;;;;20.10;7.40;;;;;;;17.84;62.57;98220.10;112308;1204;109995;-78
2021/08/26 09:39:25;;;;;;;17.30;7.00;;;;;;;17.87;62.45;98223.81;112297;1205;96886;-79
2021/08/26 09:41:52;;;;;;;19.60;7.60;;;;;;;17.88;62.50;98225.38;112390;1195;108229;-79
2021/08/26 09:44:29;;;;;;;18.80;8.10;;;;;;;17.87;62.44;98225.42;112187;1197;96019;-82
2021/08/26 09:47:04;;;;;;;18.10;6.80;;;;;;;17.88;62.42;98229.83;112692;1195;97573;-79
2021/08/26 09:49:40;;;;;;;22.70;7.80;;;;;;;17.88;62.45;98225.48;112393;1203;110954;-80
2021/08/26 09:52:17;;;;;;;18.80;7.80;;;;;;;17.84;62.41;98226.15;112294;1204;98038;-79
2021/08/26 09:54:51;;;;;;;19.60;8.00;;;;;;;17.79;62.26;98226.22;112348;1204;107566;-79
2021/08/26 09:57:19;;;;;;;;;;;;;;;17.74;62.39;98227.20;112337;1201;97716;-81
2021/08/26 09:59:52;;;;;;;19.80;8.00;;;;;;;17.71;62.41;98226.58;112405;1198;96371;-80
2021/08/26 10:02:28;;;;;;;20.40;7.90;;;;;;;17.70;62.31;98226.68;112345;1203;111112;-80
2021/08/26 10:04:59;;;;;;;21.10;7.70;;;;;;;17.67;62.19;98223.77;112320;1200;95374;-80
2021/08/26 10:07:29;;;;;;;19.10;7.60;;;;;;;17.64;62.34;98220.91;112303;1203;107479;-79
2021/08/26 10:09:59;;;;;;;18.90;7.90;;;;;;;17.62;62.25;98222.47;112347;1196;97735;-78
2021/08/26 10:12:27;;;;;;;19.80;8.40;;;;;;;17.58;62.21;98221.08;112347;1203;97610;-82
2021/08/26 10:14:55;;;;;;;16.80;7.00;;;;;;;17.54;62.27;98221.20;112257;1203;111119;-80
2021/08/26 10:17:23;;;;;;;19.40;7.90;;;;;;;17.52;62.15;98226.35;112416;1204;96287;-80
2021/08/26 10:19:53;;;;;;;18.90;7.10;;;;;;;17.50;62.12;98225.38;112289;1200;107422;-79
2021/08/26 10:22:22;;;;;;;17.50;6.70;;;;;;;17.46;62.22;98227.60;112324;1200;95671;-80
2021/08/26 10:25:00;;;;;;;18.60;7.10;;;;;;;17.40;62.13;98229.88;112340;1198;97706;-79
2021/08/26 10:27:32;;;;;;;20.50;7.70;;;;;;;17.36;62.23;98232.35;112295;1203;111107;-77
2021/08/26 10:30:00;;;;;;;19.20;7.70;;;;;;;17.33;62.10;98232.86;112288;1203;95070;-79
2021/08/26 10:32:28;;;;;;;19.70;8.10;;;;;;;17.31;62.31;98232.75;112310;1203;107245;-79
2021/08/26 10:35:14;;;;;;;18.90;7.60;;;;;;;17.30;62.28;98232.50;112347;1204;97698;-78
2021/08/26 10:37:54;;;;;;;16.20;7.00;;;;;;;17.27;62.20;98233.75;112345;1195;97722;-80
2021/08/26 10:40:25;;;;;;;19.40;7.10;;;;;;;17.21;62.09;98233.34;112326;1203;111088;-78
2021/08/26 10:42:56;;;;;;;18.70;7.30;;;;;;;17.17;62.17;98233.41;112374;1198;97580;-78
2021/08/26 10:45:30;;;;;;;19.80;7.00;;;;;;;17.16;62.26;98232.61;112321;1203;107450;-81
2021/08/26 10:48:01;;;;;;;20.00;8.10;;;;;;;17.14;62.17;98235.34;112259;1197;97682;-79
2021/08/26 10:50:38;;;;;;;20.20;8.20;;;;;;;17.13;62.29;98233.17;112304;1198;97691;-79
2021/08/26 10:53:28;;;;;;;19.20;7.80;;;;;;;17.13;62.28;98235.85;112279;1196;111101;-79
2021/08/26 10:56:29;;;;;;;19.00;7.50;;;;;;;17.10;62.31;98235.50;112239;1204;97511;-83
2021/08/26 10:58:58;;;;;;;19.50;7.50;;;;;;;17.04;62.31;98229.84;112276;1204;107476;-81
2021/08/26 11:01:45;;;;;;;19.00;7.60;;;;;;;17.02;62.40;98227.11;112278;1198;95082;-79
2021/08/26 11:04:31;;;;;;;20.40;8.00;;;;;;;16.99;62.38;98225.27;112373;1199;97658;-81
2021/08/26 11:07:01;;;;;;;19.50;7.50;;;;;;;16.95;62.50;98228.15;112320;1204;111184;-79
2021/08/26 11:09:33;;;;;;;19.20;7.50;;;;;;;16.94;62.33;98232.36;112229;1205;98022;-80
2021/08/26 11:12:23;;;;;;;19.70;8.10;;;;;;;16.93;62.50;98232.46;112252;1198;107470;-81
2021/08/26 11:14:54;;;;;;;21.90;8.20;;;;;;;16.92;62.46;98235.87;112244;1196;97648;-81
2021/08/26 11:17:26;;;;;;;21.50;8.40;;;;;;;16.89;62.53;98235.95;112321;1196;97586;-79
2021/08/26 11:19:57;;;;;;;20.30;8.20;;;;;;;16.87;62.39;98235.02;112387;1203;111133;-79
2021/08/26 11:22:25;;;;;;;19.80;8.80;;;;;;;16.84;62.59;98234.98;112339;1203;95378;-79
2021/08/26 11:24:58;;;;;;;19.70;7.40;;;;;;;16.83;62.55;98240.64;112308;1203;107487;-79
2021/08/26 11:27:30;;;;;;;23.50;8.70;;;;;;;16.82;62.69;98234.29;112326;1197;95747;-77
2021/08/26 11:30:22;;;;;;;18.40;7.30;;;;;;;16.80;62.74;98233.89;112359;1198;97697;-79